createdAt,value
2022-12-06T00:01:44.296Z,9.50
2022-12-06T00:04:17.197Z,9.60
2022-12-06T00:06:48.886Z,9.50
2022-12-06T00:09:20.118Z,9.40
2022-12-06T00:11:49.235Z,9.50
2022-12-06T00:14:20.169Z,9.40
2022-12-06T00:16:49.941Z,9.40
2022-12-06T00:19:20.753Z,9.40
2022-12-06T00:21:50.239Z,9.40
2022-12-06T00:24:21.626Z,9.30
2022-12-06T00:26:51.990Z,9.30
2022-12-06T00:29:24.319Z,9.30
2022-12-06T00:31:53.702Z,9.30
2022-12-06T00:34:23.047Z,9.30
2022-12-06T00:36:52.468Z,9.20
2022-12-06T00:39:21.779Z,9.20
2022-12-06T00:41:51.076Z,9.20
2022-12-06T00:44:21.942Z,9.20
2022-12-06T00:46:51.344Z,9.20
2022-12-06T00:49:20.756Z,9.20
2022-12-06T00:51:50.036Z,9.20
2022-12-06T00:54:19.340Z,9.30
2022-12-06T00:56:48.639Z,9.30
2022-12-06T00:59:18.095Z,9.30
2022-12-06T01:01:48.910Z,9.20
2022-12-06T01:04:18.240Z,9.20
2022-12-06T01:06:47.549Z,9.10
2022-12-06T01:09:16.896Z,9.00
2022-12-06T01:11:46.013Z,9.00
2022-12-06T01:14:14.942Z,8.90
2022-12-06T01:16:43.992Z,8.90
2022-12-06T01:19:14.641Z,8.80
2022-12-06T01:21:43.629Z,8.80
2022-12-06T01:24:12.608Z,8.80
2022-12-06T01:26:41.650Z,8.80
2022-12-06T01:29:11.627Z,8.80
2022-12-06T01:31:40.569Z,8.70
2022-12-06T01:34:17.375Z,8.70
2022-12-06T01:36:46.741Z,8.70
2022-12-06T01:39:15.710Z,8.70
2022-12-06T01:41:44.744Z,8.70
2022-12-06T01:44:43.139Z,8.70
2022-12-06T01:47:19.811Z,8.70
2022-12-06T01:49:54.088Z,8.70
2022-12-06T01:52:28.610Z,8.70
2022-12-06T01:54:59.576Z,8.70
2022-12-06T01:57:31.699Z,8.70
2022-12-06T02:00:01.223Z,8.70
2022-12-06T02:02:39.755Z,8.70
2022-12-06T02:05:11.609Z,8.60
2022-12-06T02:07:41.389Z,8.60
2022-12-06T02:10:11.366Z,8.60
2022-12-06T02:12:40.363Z,8.60
2022-12-06T02:15:10.860Z,8.60
2022-12-06T02:17:47.953Z,8.50
2022-12-06T02:20:29.392Z,8.50
2022-12-06T02:23:14.198Z,8.60
2022-12-06T02:26:11.815Z,8.60
2022-12-06T02:29:22.773Z,8.50
2022-12-06T02:31:59.407Z,8.50
2022-12-06T02:34:35.237Z,8.50
2022-12-06T02:37:11.415Z,8.50
2022-12-06T02:39:46.371Z,8.40
2022-12-06T02:42:19.955Z,8.40
2022-12-06T02:44:53.254Z,8.40
2022-12-06T02:47:27.919Z,8.40
2022-12-06T02:49:58.744Z,8.40
2022-12-06T02:52:29.805Z,8.40
2022-12-06T02:55:01.326Z,8.40
2022-12-06T02:57:41.006Z,8.50
2022-12-06T03:00:34.545Z,8.50
2022-12-06T03:03:20.078Z,8.50
2022-12-06T03:06:14.275Z,8.50
2022-12-06T03:08:51.490Z,8.50
2022-12-06T03:11:20.587Z,8.50
2022-12-06T03:13:56.100Z,8.50
2022-12-06T03:16:30.208Z,8.60
2022-12-06T03:19:05.545Z,8.60
2022-12-06T03:21:38.087Z,8.50
2022-12-06T03:24:15.845Z,8.60
2022-12-06T03:26:48.020Z,8.60
2022-12-06T03:29:19.964Z,8.60
2022-12-06T03:31:50.437Z,8.60
2022-12-06T03:34:24.214Z,8.60
2022-12-06T03:37:16.101Z,8.60
2022-12-06T03:39:49.324Z,8.60
2022-12-06T03:42:20.672Z,8.60
2022-12-06T03:44:49.755Z,8.60
2022-12-06T03:47:26.249Z,8.70
2022-12-06T03:50:00.592Z,8.70
2022-12-06T03:52:31.215Z,8.70
2022-12-06T03:55:00.248Z,8.70
2022-12-06T03:57:29.327Z,8.70
2022-12-06T03:59:58.737Z,8.80
2022-12-06T04:02:28.211Z,8.80
2022-12-06T04:04:58.601Z,8.80
2022-12-06T04:07:27.596Z,8.80
2022-12-06T04:10:03.427Z,8.80
2022-12-06T04:12:52.598Z,8.80
2022-12-06T04:15:22.534Z,8.80
2022-12-06T04:18:09.166Z,8.80
2022-12-06T04:21:02.355Z,8.80
2022-12-06T04:23:33.181Z,8.80
2022-12-06T04:26:02.334Z,8.90
2022-12-06T04:28:50.173Z,8.90
2022-12-06T04:31:37.272Z,8.90
2022-12-06T04:34:23.472Z,8.90
2022-12-06T04:37:12.033Z,8.90
2022-12-06T04:39:41.181Z,8.90
2022-12-06T04:42:28.268Z,8.90
2022-12-06T04:44:57.255Z,8.90
2022-12-06T04:47:26.908Z,8.90
2022-12-06T04:49:55.898Z,8.90
2022-12-06T04:52:28.166Z,8.90
2022-12-06T04:55:02.138Z,8.90
2022-12-06T04:57:31.090Z,8.90
2022-12-06T05:00:00.383Z,8.90
2022-12-06T05:02:29.751Z,8.90
2022-12-06T05:04:58.766Z,8.80
2022-12-06T05:07:29.186Z,8.90
2022-12-06T05:09:58.585Z,8.80
2022-12-06T05:12:27.900Z,8.80
2022-12-06T05:14:56.922Z,8.80
2022-12-06T05:17:27.101Z,8.80
2022-12-06T05:19:56.172Z,8.80
2022-12-06T05:22:25.181Z,8.80
2022-12-06T05:24:55.615Z,8.80
2022-12-06T05:27:24.628Z,8.80
2022-12-06T05:29:53.575Z,8.80
2022-12-06T05:32:22.605Z,8.80
2022-12-06T05:34:51.707Z,8.80
2022-12-06T05:37:20.709Z,8.80
2022-12-06T05:39:49.687Z,8.80
2022-12-06T05:42:22.568Z,8.80
2022-12-06T05:44:51.756Z,8.80
2022-12-06T05:47:20.713Z,8.80
2022-12-06T05:49:49.747Z,8.90
2022-12-06T05:52:18.733Z,8.90
2022-12-06T05:54:47.686Z,8.90
2022-12-06T05:57:16.728Z,8.80
2022-12-06T05:59:47.162Z,8.80
2022-12-06T06:02:16.238Z,8.80
2022-12-06T06:04:45.277Z,8.90
2022-12-06T06:07:14.255Z,8.90
2022-12-06T06:09:43.216Z,8.90
2022-12-06T06:12:12.787Z,8.80
2022-12-06T06:14:41.993Z,8.80
2022-12-06T06:17:13.366Z,8.80
2022-12-06T06:19:42.328Z,8.80
2022-12-06T06:22:11.361Z,8.70
2022-12-06T06:24:42.370Z,8.70
2022-12-06T06:27:12.201Z,8.70
2022-12-06T06:29:45.349Z,8.80
2022-12-06T06:32:16.151Z,8.80
2022-12-06T06:34:45.159Z,8.80
2022-12-06T06:37:14.105Z,8.80
2022-12-06T06:39:43.079Z,8.70
2022-12-06T06:42:12.114Z,8.70
2022-12-06T06:44:41.099Z,8.70
2022-12-06T06:47:10.103Z,8.70
2022-12-06T06:49:40.973Z,8.70
2022-12-06T06:52:09.976Z,8.70
2022-12-06T06:54:38.949Z,8.70
2022-12-06T06:57:09.583Z,8.70
2022-12-06T06:59:43.081Z,8.80
2022-12-06T07:02:14.135Z,8.80
2022-12-06T07:04:45.145Z,8.80
2022-12-06T07:07:20.723Z,8.80
2022-12-06T07:09:50.122Z,8.70
2022-12-06T07:12:19.167Z,8.70
2022-12-06T07:14:48.172Z,8.80
2022-12-06T07:17:17.204Z,8.80
2022-12-06T07:19:47.777Z,8.80
2022-12-06T07:22:19.016Z,8.80
2022-12-06T07:24:52.218Z,8.90
2022-12-06T07:27:21.498Z,8.90
2022-12-06T07:29:50.546Z,8.90
2022-12-06T07:32:19.603Z,8.80
2022-12-06T07:34:50.019Z,8.80
2022-12-06T07:37:20.558Z,8.70
2022-12-06T07:39:50.464Z,8.70
2022-12-06T07:42:39.117Z,8.70
2022-12-06T07:45:09.242Z,8.60
2022-12-06T07:47:39.374Z,8.60
2022-12-06T07:50:17.840Z,8.60
2022-12-06T07:52:48.003Z,8.60
2022-12-06T07:55:18.233Z,8.60
2022-12-06T07:57:48.179Z,8.60
2022-12-06T08:00:18.158Z,8.60
2022-12-06T08:02:47.203Z,8.60
2022-12-06T08:05:17.644Z,8.70
2022-12-06T08:07:47.743Z,8.60
2022-12-06T08:10:16.771Z,8.60
2022-12-06T08:12:45.771Z,8.60
2022-12-06T08:15:14.899Z,8.60
2022-12-06T08:17:44.158Z,8.50
2022-12-06T08:20:14.021Z,8.50
2022-12-06T08:22:46.656Z,8.50
2022-12-06T08:25:24.861Z,8.50
2022-12-06T08:27:54.878Z,8.50
2022-12-06T08:30:23.993Z,8.50
2022-12-06T08:32:53.146Z,8.60
2022-12-06T08:35:22.255Z,8.50
2022-12-06T08:37:52.571Z,8.50
2022-12-06T08:40:27.327Z,8.50
2022-12-06T08:42:56.379Z,8.50
2022-12-06T08:45:25.603Z,8.50
2022-12-06T08:47:54.652Z,8.60
2022-12-06T08:50:23.634Z,8.60
2022-12-06T08:52:54.231Z,8.60
2022-12-06T08:55:23.216Z,8.60
2022-12-06T08:57:52.427Z,8.60
2022-12-06T09:00:22.113Z,8.50
2022-12-06T09:02:51.071Z,8.50
2022-12-06T09:05:20.074Z,8.50
2022-12-06T09:07:49.096Z,8.50
2022-12-06T09:10:19.645Z,8.50
2022-12-06T09:12:48.628Z,8.50
2022-12-06T09:15:17.823Z,8.50
2022-12-06T09:17:46.855Z,8.40
2022-12-06T09:20:18.281Z,8.40
2022-12-06T09:22:47.300Z,8.40
2022-12-06T09:25:16.392Z,8.40
2022-12-06T09:27:46.863Z,8.40
2022-12-06T09:30:16.506Z,8.50
2022-12-06T09:32:45.662Z,8.60
2022-12-06T09:35:15.967Z,8.70
2022-12-06T09:37:46.326Z,8.70
2022-12-06T09:40:21.466Z,8.80
2022-12-06T09:43:02.898Z,8.80
2022-12-06T09:45:46.485Z,8.90
2022-12-06T09:48:50.872Z,8.90
2022-12-06T09:51:32.842Z,9.00
2022-12-06T09:54:15.902Z,9.00
2022-12-06T09:56:51.276Z,9.00
2022-12-06T09:59:33.889Z,9.00
2022-12-06T10:02:25.563Z,9.10
2022-12-06T10:05:28.815Z,9.10
2022-12-06T10:08:06.307Z,9.10
2022-12-06T10:10:44.750Z,9.10
2022-12-06T10:13:20.685Z,9.00
2022-12-06T10:16:03.864Z,9.00
2022-12-06T10:18:51.149Z,9.00
2022-12-06T10:21:27.138Z,9.00
2022-12-06T10:24:07.985Z,8.90
2022-12-06T10:26:46.588Z,9.00
2022-12-06T10:29:27.553Z,9.00
2022-12-06T10:32:01.588Z,9.00
2022-12-06T10:34:49.358Z,9.10
2022-12-06T10:37:26.844Z,9.10
2022-12-06T10:40:00.395Z,9.10
2022-12-06T10:42:36.790Z,9.10
2022-12-06T10:45:30.777Z,9.20
2022-12-06T10:48:03.819Z,9.20
2022-12-06T10:50:36.071Z,9.20
2022-12-06T10:53:11.558Z,9.20
2022-12-06T10:55:46.975Z,9.20
2022-12-06T10:58:24.489Z,9.20
2022-12-06T11:00:57.289Z,9.20
2022-12-06T11:03:33.328Z,9.10
2022-12-06T11:06:08.548Z,9.00
2022-12-06T11:08:40.496Z,9.10
2022-12-06T11:11:16.433Z,9.10
2022-12-06T11:13:48.988Z,9.10
2022-12-06T11:16:25.690Z,9.10
2022-12-06T11:18:58.963Z,9.10
2022-12-06T11:21:32.398Z,9.20
2022-12-06T11:24:04.254Z,9.20
2022-12-06T11:26:39.207Z,9.30
2022-12-06T11:29:13.261Z,9.30
2022-12-06T11:31:46.095Z,9.30
2022-12-06T11:34:19.944Z,9.40
2022-12-06T11:36:58.191Z,9.40
2022-12-06T11:39:30.038Z,9.40
2022-12-06T11:42:01.842Z,9.40
2022-12-06T11:44:39.199Z,9.30
2022-12-06T11:47:08.898Z,9.30
2022-12-06T12:15:36.188Z,9.00
2022-12-06T12:18:05.597Z,9.00
2022-12-06T12:20:38.526Z,9.00
2022-12-06T12:23:17.386Z,9.00
2022-12-06T12:26:01.009Z,9.10
2022-12-06T12:28:32.197Z,9.10
2022-12-06T12:31:11.567Z,9.20
2022-12-06T12:33:40.537Z,9.20
2022-12-06T12:36:18.663Z,9.30
2022-12-06T12:38:55.310Z,9.30
2022-12-06T12:41:30.172Z,9.20
2022-12-06T12:44:28.828Z,9.20
2022-12-06T12:46:56.842Z,9.20
2022-12-06T12:49:29.524Z,9.10
2022-12-06T12:51:59.487Z,9.20
2022-12-06T12:54:32.152Z,9.20
2022-12-06T12:57:03.474Z,9.20
2022-12-06T12:59:38.945Z,9.00
2022-12-06T13:02:19.621Z,9.00
2022-12-06T13:05:05.239Z,9.00
2022-12-06T13:07:43.870Z,8.90
2022-12-06T13:10:20.390Z,8.90
2022-12-06T13:12:54.035Z,8.80
2022-12-06T13:15:30.115Z,8.80
2022-12-06T13:18:06.714Z,8.80
2022-12-06T13:20:37.508Z,8.70
2022-12-06T13:23:10.650Z,8.70
2022-12-06T13:25:39.744Z,8.60
2022-12-06T13:28:17.645Z,8.60
2022-12-06T13:30:55.391Z,8.50
2022-12-06T13:33:28.566Z,8.50
2022-12-06T13:36:02.192Z,8.50
2022-12-06T13:38:33.354Z,8.50
2022-12-06T13:41:03.209Z,8.50
2022-12-06T13:43:59.002Z,8.50
2022-12-06T13:46:33.306Z,8.50
2022-12-06T13:49:06.483Z,8.50
2022-12-06T13:51:49.098Z,8.50
2022-12-06T13:54:39.071Z,8.60
2022-12-06T13:57:31.925Z,8.60
2022-12-06T14:00:01.355Z,8.60
2022-12-06T14:02:51.436Z,8.60
2022-12-06T14:06:06.093Z,8.60
2022-12-06T14:08:40.869Z,8.60
2022-12-06T14:11:22.806Z,8.70
2022-12-06T14:14:03.682Z,8.80
2022-12-06T14:16:36.846Z,8.80
2022-12-06T14:19:15.695Z,8.90
2022-12-06T14:21:53.450Z,8.90
2022-12-06T14:24:41.697Z,8.90
2022-12-06T14:27:15.666Z,8.80
2022-12-06T14:29:59.415Z,8.60
2022-12-06T14:32:33.992Z,8.50
2022-12-06T14:35:04.811Z,8.50
2022-12-06T14:37:35.372Z,8.40
2022-12-06T14:40:43.862Z,8.40
2022-12-06T14:43:17.372Z,8.40
2022-12-06T14:45:47.558Z,8.40
2022-12-06T14:48:17.019Z,8.50
2022-12-06T14:50:50.211Z,8.50
2022-12-06T14:53:31.397Z,8.60
2022-12-06T14:56:02.687Z,8.70
2022-12-06T14:58:32.287Z,8.80
2022-12-06T15:01:03.893Z,8.80
2022-12-06T15:03:34.079Z,8.90
2022-12-06T15:06:16.763Z,8.90
2022-12-06T15:08:53.490Z,8.90
2022-12-06T15:11:48.385Z,9.00
2022-12-06T15:14:19.837Z,9.00
2022-12-06T15:16:59.240Z,9.00
2022-12-06T15:19:29.819Z,8.90
2022-12-06T15:22:00.848Z,8.80
2022-12-06T15:24:32.299Z,8.70
2022-12-06T15:27:01.288Z,8.60
2022-12-06T15:29:30.267Z,8.50
2022-12-06T15:31:59.528Z,8.50
2022-12-06T15:34:30.792Z,8.40
2022-12-06T15:37:36.471Z,8.40
2022-12-06T15:39:50.520Z,8.40
2022-12-06T15:42:21.518Z,8.40
2022-12-06T15:44:51.417Z,8.40
2022-12-06T15:47:20.823Z,8.40
2022-12-06T15:49:51.931Z,8.40
2022-12-06T15:52:24.393Z,8.40
2022-12-06T15:54:54.779Z,8.40
2022-12-06T15:57:23.798Z,8.50
2022-12-06T15:59:52.749Z,8.50
2022-12-06T16:02:21.970Z,8.50
2022-12-06T16:04:52.068Z,8.60
2022-12-06T16:07:21.298Z,8.60
2022-12-06T16:09:50.246Z,8.70
2022-12-06T16:12:20.639Z,8.70
2022-12-06T16:14:49.707Z,8.70
2022-12-06T16:17:19.327Z,8.80
2022-12-06T16:20:05.434Z,8.80
2022-12-06T16:22:51.829Z,8.80
2022-12-06T16:25:20.928Z,8.80
2022-12-06T16:27:51.313Z,8.80
2022-12-06T16:30:32.148Z,8.80
2022-12-06T16:33:07.161Z,8.70
2022-12-06T16:35:36.589Z,8.70
2022-12-06T16:38:05.617Z,8.70
2022-12-06T16:44:55.569Z,8.70
2022-12-06T16:49:52.375Z,8.60
2022-12-06T16:52:21.435Z,8.60
2022-12-06T16:54:51.580Z,8.60
2022-12-06T16:57:21.023Z,8.60
2022-12-06T16:59:50.442Z,8.60
2022-12-06T17:02:30.118Z,8.60
2022-12-06T17:05:02.371Z,8.60
2022-12-06T17:07:31.899Z,8.60
2022-12-06T17:10:01.519Z,8.50
2022-12-06T17:12:30.624Z,8.50
2022-12-06T17:15:01.042Z,8.40
2022-12-06T17:17:31.757Z,8.40
2022-12-06T17:20:00.879Z,8.40
2022-12-06T17:22:30.006Z,8.40
2022-12-06T17:24:59.305Z,8.50
2022-12-06T17:27:28.571Z,8.50
2022-12-06T17:29:57.546Z,8.50
2022-12-06T17:32:27.167Z,8.50
2022-12-06T17:34:57.580Z,8.50
2022-12-06T17:37:26.609Z,8.50
2022-12-06T17:39:55.672Z,8.50
2022-12-06T17:42:42.402Z,8.50
2022-12-06T17:45:11.934Z,8.50
2022-12-06T17:47:43.352Z,8.50
2022-12-06T17:50:14.297Z,8.40
2022-12-06T17:52:43.322Z,8.40
2022-12-06T17:55:14.960Z,8.40
2022-12-06T17:57:45.459Z,8.40
2022-12-06T18:00:18.190Z,8.30
2022-12-06T18:02:48.776Z,8.30
2022-12-06T18:05:19.434Z,8.30
2022-12-06T18:07:48.669Z,8.30
2022-12-06T18:10:17.947Z,8.30
2022-12-06T18:12:47.039Z,8.30
2022-12-06T18:15:29.979Z,8.20
2022-12-06T18:17:58.968Z,8.20
2022-12-06T18:20:29.319Z,8.10
2022-12-06T18:22:58.284Z,8.10
2022-12-06T18:25:27.233Z,8.20
2022-12-06T18:27:56.296Z,8.10
2022-12-06T18:30:25.271Z,8.10
2022-12-06T18:32:54.352Z,8.10
2022-12-06T18:35:23.395Z,8.10
2022-12-06T18:37:54.071Z,8.10
2022-12-06T18:40:23.141Z,8.20
2022-12-06T18:42:52.473Z,8.20
2022-12-06T18:45:21.602Z,8.20
2022-12-06T18:47:50.759Z,8.20
2022-12-06T18:50:19.882Z,8.10
2022-12-06T18:52:48.935Z,8.10
2022-12-06T18:55:19.365Z,8.10
2022-12-06T18:57:48.613Z,8.10
2022-12-06T19:00:18.234Z,8.10
2022-12-06T19:02:47.360Z,8.10
2022-12-06T19:05:32.886Z,8.10
2022-12-06T19:08:06.776Z,8.20
2022-12-06T19:10:37.725Z,8.20
2022-12-06T19:13:06.780Z,8.20
2022-12-06T19:15:35.831Z,8.20
2022-12-06T19:18:06.014Z,8.20
2022-12-06T19:20:35.006Z,8.20
2022-12-06T19:23:13.784Z,8.20
2022-12-06T19:25:44.161Z,8.20
2022-12-06T19:28:14.892Z,8.20
2022-12-06T19:30:43.961Z,8.20
2022-12-06T19:33:13.088Z,8.30
2022-12-06T19:35:42.336Z,8.20
2022-12-06T19:38:15.147Z,8.30
2022-12-06T19:40:45.535Z,8.20
2022-12-06T19:43:31.852Z,8.20
2022-12-06T19:46:09.940Z,8.30
2022-12-06T19:48:39.142Z,8.20
2022-12-06T19:51:09.033Z,8.20
2022-12-06T19:53:39.977Z,8.20
2022-12-06T19:56:12.575Z,8.10
2022-12-06T19:58:42.034Z,8.10
2022-12-06T20:01:14.808Z,8.10
2022-12-06T20:03:47.243Z,8.10
2022-12-06T20:06:18.274Z,8.10
2022-12-06T20:08:48.411Z,8.10
2022-12-06T20:11:38.572Z,8.10
2022-12-06T20:14:09.742Z,8.10
2022-12-06T20:16:38.956Z,8.00
2022-12-06T20:19:08.320Z,8.00
2022-12-06T20:21:37.347Z,8.00
2022-12-06T20:24:06.801Z,8.00
2022-12-06T20:26:37.264Z,8.00
2022-12-06T20:29:06.778Z,8.00
2022-12-06T20:31:36.011Z,8.10
2022-12-06T20:34:13.134Z,8.00
2022-12-06T20:36:44.027Z,8.00
2022-12-06T20:39:20.888Z,8.00
2022-12-06T20:41:54.910Z,8.10
2022-12-06T20:44:24.243Z,8.00
2022-12-06T20:46:54.378Z,8.10
2022-12-06T20:49:24.690Z,8.10
2022-12-06T20:51:53.961Z,8.10
2022-12-06T20:54:23.998Z,8.20
2022-12-06T20:56:58.589Z,8.20
2022-12-06T20:59:29.390Z,8.20
2022-12-06T21:01:58.570Z,8.20
2022-12-06T21:04:29.120Z,8.20
2022-12-06T21:06:58.194Z,8.20
2022-12-06T21:09:27.226Z,8.20
2022-12-06T21:11:58.768Z,8.20
2022-12-06T21:14:36.469Z,8.30
2022-12-06T21:17:06.135Z,8.30
2022-12-06T21:19:35.167Z,8.30
2022-12-06T21:22:08.163Z,8.30
2022-12-06T21:24:38.079Z,8.30
2022-12-06T21:27:08.872Z,8.30
2022-12-06T21:29:39.042Z,8.30
2022-12-06T21:32:08.207Z,8.30
2022-12-06T21:34:43.044Z,8.30
2022-12-06T21:37:15.312Z,8.30
2022-12-06T21:39:46.400Z,8.30
2022-12-06T21:42:17.628Z,8.30
2022-12-06T21:44:46.383Z,8.30
2022-12-06T21:47:15.284Z,8.20
2022-12-06T21:49:44.271Z,8.20
2022-12-06T21:52:13.888Z,8.10
2022-12-06T21:54:42.856Z,8.10
2022-12-06T21:57:11.998Z,8.00
2022-12-06T21:59:42.382Z,8.00
2022-12-06T22:02:11.874Z,7.90
2022-12-06T22:04:40.976Z,7.90
2022-12-06T22:07:09.946Z,7.90
2022-12-06T22:09:38.962Z,7.90
2022-12-06T22:12:08.137Z,7.90
2022-12-06T22:14:37.089Z,7.90
2022-12-06T22:17:07.565Z,7.90
2022-12-06T22:19:36.560Z,7.90
2022-12-06T22:22:05.580Z,7.90
2022-12-06T22:24:34.825Z,7.90
2022-12-06T22:27:03.906Z,7.90
2022-12-06T22:29:32.979Z,7.80
2022-12-06T22:32:02.192Z,7.80
2022-12-06T22:34:32.785Z,7.70
2022-12-06T22:37:01.785Z,7.70
2022-12-06T22:39:30.817Z,7.60
2022-12-06T22:41:59.786Z,7.70
2022-12-06T22:44:28.763Z,7.80
2022-12-06T22:46:57.863Z,7.80
2022-12-06T22:49:27.040Z,7.80
2022-12-06T22:51:57.485Z,7.90
2022-12-06T22:54:26.492Z,7.90
2022-12-06T22:56:56.793Z,8.00
2022-12-06T22:59:25.783Z,8.00
2022-12-06T23:01:54.785Z,8.00
2022-12-06T23:04:23.762Z,8.00
2022-12-06T23:06:52.775Z,8.00
2022-12-06T23:09:23.204Z,8.00
2022-12-06T23:11:52.217Z,8.10
2022-12-06T23:14:21.227Z,8.00
2022-12-06T23:16:50.270Z,8.00
2022-12-06T23:19:19.420Z,8.00
2022-12-06T23:21:48.415Z,8.00
2022-12-06T23:24:17.897Z,8.00
2022-12-06T23:26:54.611Z,8.00
2022-12-06T23:29:26.849Z,8.00
2022-12-06T23:31:55.982Z,8.00
2022-12-06T23:34:26.689Z,7.90
2022-12-06T23:36:57.257Z,7.80
2022-12-06T23:39:26.596Z,7.80
2022-12-06T23:41:57.042Z,7.80
2022-12-06T23:44:26.418Z,7.80
2022-12-06T23:46:55.485Z,7.80
2022-12-06T23:49:24.648Z,7.70
2022-12-06T23:51:53.639Z,7.70
2022-12-06T23:54:22.604Z,7.70
2022-12-06T23:56:51.618Z,7.70
2022-12-06T23:59:22.000Z,7.70
